Time;durP1;ratioP1;P1;durP2;ratioP2;P2;SDS_P1;SDS_P2;PMS_P1;PMS_P2;Temp;Humidity;BMP_temperature;BMP_pressure;BME280_temperature;BME280_humidity;BME280_pressure;Samples;Min_cycle;Max_cycle;Signal;HPM_P1;HPM_P2
2021/11/23 00:00:52;;;;;;;;;;;3.40;99.90;;;;;;8430298;28;19908;-65
2021/11/23 00:04:52;;;;;;;;;;;3.40;99.90;;;;;;8430503;28;19950;-64
2021/11/23 00:08:53;;;;;;;;;;;3.30;99.90;;;;;;8425566;28;19913;-64
2021/11/23 00:12:53;;;;;;;;;;;3.30;99.90;;;;;;8427221;28;19912;-65
2021/11/23 00:16:54;;;;;;;;;;;3.30;99.90;;;;;;8429979;28;19954;-64
2021/11/23 00:20:54;;;;;;;;;;;3.40;99.90;;;;;;8429955;28;19912;-64
2021/11/23 00:24:55;;;;;;;;;;;3.30;99.90;;;;;;8429733;28;20267;-64
2021/11/23 00:28:55;;;;;;;;;;;3.30;99.90;;;;;;8429211;28;20317;-64
2021/11/23 00:32:56;;;;;;;;;;;3.30;99.90;;;;;;8428250;28;19932;-64
2021/11/23 00:36:58;;;;;;;;;;;3.30;99.90;;;;;;8429618;28;19909;-64
2021/11/23 00:40:59;;;;;;;;;;;3.20;99.90;;;;;;8421549;28;19912;-64
2021/11/23 00:44:59;;;;;;;;;;;3.20;99.90;;;;;;8428913;28;19953;-65
2021/11/23 00:49:00;;;;;;;;;;;3.20;99.90;;;;;;8428676;28;20175;-64
2021/11/23 00:53:01;;;;;;;;;;;3.20;99.90;;;;;;8410474;28;19955;-64
2021/11/23 00:57:01;;;;;;;;;;;3.20;99.90;;;;;;8410499;28;19908;-64
2021/11/23 01:01:03;;;;;;;;;;;3.20;99.90;;;;;;8428423;28;19908;-64
2021/11/23 01:05:04;;;;;;;;;;;3.10;99.90;;;;;;8410267;28;19909;-64
2021/11/23 01:09:04;;;;;;;;;;;3.10;99.90;;;;;;8421826;28;20293;-64
2021/11/23 01:13:05;;;;;;;;;;;2.90;99.90;;;;;;8408454;28;19969;-64
2021/11/23 01:17:06;;;;;;;;;;;2.90;99.90;;;;;;8428119;28;19912;-64
2021/11/23 01:21:08;;;;;;;;;;;2.90;99.90;;;;;;8428010;28;20297;-64
2021/11/23 01:25:10;;;;;;;;;;;2.80;99.90;;;;;;8409594;28;19915;-63
2021/11/23 01:29:10;;;;;;;;;;;2.90;99.90;;;;;;8427503;28;20455;-64
2021/11/23 01:33:11;;;;;;;;;;;2.80;99.90;;;;;;8428026;28;19908;-64
2021/11/23 01:37:12;;;;;;;;;;;2.70;99.90;;;;;;8427476;28;19919;-64
2021/11/23 01:41:12;;;;;;;;;;;2.70;99.90;;;;;;8419238;28;20318;-64
2021/11/23 01:45:13;;;;;;;;;;;2.80;99.90;;;;;;8426443;28;20457;-64
2021/11/23 01:49:14;;;;;;;;;;;2.70;99.90;;;;;;8426163;28;20002;-64
2021/11/23 01:53:14;;;;;;;;;;;2.70;99.90;;;;;;8426703;28;19909;-64
2021/11/23 01:57:16;;;;;;;;;;;2.60;99.90;;;;;;8408842;28;19908;-64
2021/11/23 02:01:17;;;;;;;;;;;2.70;99.90;;;;;;8426888;28;19950;-64
2021/11/23 02:05:18;;;;;;;;;;;2.60;99.90;;;;;;8408572;28;19908;-64
2021/11/23 02:09:18;;;;;;;;;;;2.70;99.90;;;;;;8419060;28;20011;-64
2021/11/23 02:13:19;;;;;;;;;;;2.60;99.90;;;;;;8426104;28;19918;-64
2021/11/23 02:17:19;;;;;;;;;;;2.60;99.90;;;;;;8408517;28;19912;-64
2021/11/23 02:21:20;;;;;;;;;;;2.60;99.90;;;;;;8426315;28;19912;-64
2021/11/23 02:25:20;;;;;;;;;;;2.70;99.90;;;;;;8426453;28;20446;-64
2021/11/23 02:29:21;;;;;;;;;;;2.60;99.90;;;;;;8426286;28;19955;-64
2021/11/23 02:33:22;;;;;;;;;;;2.60;99.90;;;;;;8426048;28;20412;-64
2021/11/23 02:37:22;;;;;;;;;;;2.60;99.90;;;;;;8426898;28;20302;-64
2021/11/23 02:41:23;;;;;;;;;;;2.60;99.90;;;;;;8400471;28;20003;-64
2021/11/23 02:45:24;;;;;;;;;;;2.60;99.90;;;;;;8426273;28;19916;-64
2021/11/23 02:49:25;;;;;;;;;;;2.60;99.90;;;;;;8425720;28;20156;-64
2021/11/23 02:53:25;;;;;;;;;;;2.70;99.90;;;;;;8408330;28;19908;-64
2021/11/23 02:57:30;;;;;;;;;;;2.60;99.90;;;;;;8404199;28;19944;-64
2021/11/23 03:01:31;;;;;;;;;;;2.60;99.90;;;;;;8398674;28;19912;-64
2021/11/23 03:05:31;;;;;;;;;;;2.50;99.90;;;;;;8380779;28;20305;-65
2021/11/23 03:09:32;;;;;;;;;;;2.50;99.90;;;;;;8401059;28;20301;-63
2021/11/23 03:13:32;;;;;;;;;;;2.50;99.90;;;;;;8431840;28;20025;-64
2021/11/23 03:17:33;;;;;;;;;;;2.40;99.90;;;;;;8431819;28;19931;-64
2021/11/23 03:21:35;;;;;;;;;;;2.50;99.90;;;;;;8413502;28;20394;-65
2021/11/23 03:25:36;;;;;;;;;;;2.50;99.90;;;;;;8431335;28;20289;-65
2021/11/23 03:29:37;;;;;;;;;;;2.50;99.90;;;;;;8452172;22;19924;-64
2021/11/23 03:33:37;;;;;;;;;;;2.50;99.90;;;;;;8431701;28;19908;-64
2021/11/23 03:37:38;;;;;;;;;;;2.40;99.90;;;;;;8431083;28;20390;-64
2021/11/23 03:41:38;;;;;;;;;;;2.50;99.90;;;;;;8422497;28;19912;-64
2021/11/23 03:45:39;;;;;;;;;;;2.60;99.90;;;;;;8430381;28;19912;-64
2021/11/23 03:49:42;;;;;;;;;;;2.40;99.90;;;;;;8430431;28;19922;-64
2021/11/23 03:53:43;;;;;;;;;;;2.40;99.90;;;;;;8431420;28;19950;-64
2021/11/23 03:57:44;;;;;;;;;;;2.50;99.90;;;;;;8430441;28;20386;-64
2021/11/23 04:01:45;;;;;;;;;;;2.50;99.90;;;;;;8430387;28;20372;-64
2021/11/23 04:05:45;;;;;;;;;;;2.40;99.90;;;;;;8429136;28;19990;-64
2021/11/23 04:09:46;;;;;;;;;;;2.40;99.90;;;;;;8424028;28;19912;-64
2021/11/23 04:13:46;;;;;;;;;;;2.50;99.90;;;;;;8404791;28;19912;-64
2021/11/23 04:17:48;;;;;;;;;;;2.50;99.90;;;;;;8378482;28;19908;-64
2021/11/23 04:21:49;;;;;;;;;;;2.40;99.90;;;;;;8378508;28;20001;-64
2021/11/23 04:25:49;;;;;;;;;;;2.40;99.90;;;;;;8396890;28;19909;-64
2021/11/23 04:29:49;;;;;;;;;;;2.40;99.90;;;;;;8395634;28;19970;-64
2021/11/23 04:33:50;;;;;;;;;;;2.40;99.90;;;;;;8395955;28;19915;-64
2021/11/23 04:37:50;;;;;;;;;;;2.30;99.90;;;;;;8419248;28;20283;-64
2021/11/23 04:41:51;;;;;;;;;;;2.30;99.90;;;;;;8414604;28;19943;-64
2021/11/23 04:45:51;;;;;;;;;;;2.30;99.90;;;;;;8395368;28;20331;-64
2021/11/23 04:49:52;;;;;;;;;;;2.30;99.90;;;;;;8426782;28;19916;-64
2021/11/23 04:53:53;;;;;;;;;;;2.20;99.90;;;;;;8409541;28;19920;-64
2021/11/23 04:57:53;;;;;;;;;;;2.30;99.90;;;;;;8427145;28;20448;-64
2021/11/23 05:01:53;;;;;;;;;;;2.10;99.90;;;;;;8427930;28;19923;-64
2021/11/23 05:05:54;;;;;;;;;;;2.20;99.90;;;;;;8410504;28;19923;-64
2021/11/23 05:09:54;;;;;;;;;;;2.30;99.90;;;;;;8421343;28;19917;-64
2021/11/23 05:13:55;;;;;;;;;;;2.20;99.90;;;;;;8410835;28;19919;-64
2021/11/23 05:17:55;;;;;;;;;;;2.30;99.90;;;;;;8423516;28;19916;-64
2021/11/23 05:21:56;;;;;;;;;;;2.20;99.90;;;;;;8394204;28;19919;-64
2021/11/23 05:25:58;;;;;;;;;;;2.10;99.90;;;;;;8399559;28;19965;-64
2021/11/23 05:29:59;;;;;;;;;;;2.10;99.90;;;;;;8404063;28;19916;-64
2021/11/23 05:34:00;;;;;;;;;;;2.10;99.90;;;;;;8396534;28;19993;-64
2021/11/23 05:38:01;;;;;;;;;;;2.10;99.90;;;;;;8404015;28;19955;-64
2021/11/23 05:42:02;;;;;;;;;;;2.00;99.90;;;;;;8414397;28;19919;-64
2021/11/23 05:46:03;;;;;;;;;;;2.00;99.90;;;;;;8393713;28;20054;-65
2021/11/23 05:50:04;;;;;;;;;;;2.00;99.90;;;;;;8404541;28;19970;-65
2021/11/23 05:54:05;;;;;;;;;;;1.90;99.90;;;;;;8391542;28;19912;-65
2021/11/23 05:58:05;;;;;;;;;;;1.90;99.90;;;;;;8420623;28;19912;-65
2021/11/23 06:02:05;;;;;;;;;;;1.90;99.90;;;;;;8425409;28;19912;-65
2021/11/23 06:06:06;;;;;;;;;;;1.70;99.90;;;;;;8425192;28;19915;-65
2021/11/23 06:10:07;;;;;;;;;;;1.70;99.90;;;;;;8418241;28;19912;-65
2021/11/23 06:14:08;;;;;;;;;;;1.80;99.90;;;;;;8401355;28;20270;-65
2021/11/23 06:18:10;;;;;;;;;;;1.80;99.90;;;;;;8392743;28;19909;-65
2021/11/23 06:22:11;;;;;;;;;;;1.90;99.90;;;;;;8374974;28;20022;-65
2021/11/23 06:26:12;;;;;;;;;;;1.70;99.90;;;;;;8393373;28;20286;-65
2021/11/23 06:30:12;;;;;;;;;;;1.80;99.90;;;;;;8395829;28;20014;-65
2021/11/23 06:34:13;;;;;;;;;;;1.80;99.90;;;;;;8399479;28;19931;-65
2021/11/23 06:38:13;;;;;;;;;;;1.80;99.90;;;;;;8381472;28;20299;-65
2021/11/23 06:42:14;;;;;;;;;;;1.80;99.90;;;;;;8405653;28;20195;-65
2021/11/23 06:46:14;;;;;;;;;;;1.80;99.90;;;;;;8399674;28;19908;-65
2021/11/23 06:50:15;;;;;;;;;;;1.70;99.90;;;;;;8412551;28;20305;-65
2021/11/23 06:54:15;;;;;;;;;;;1.80;99.90;;;;;;8399270;28;19908;-65
2021/11/23 06:58:17;;;;;;;;;;;1.80;99.90;;;;;;8399024;28;19912;-65
2021/11/23 07:02:17;;;;;;;;;;;1.90;99.90;;;;;;8397626;28;19978;-65
2021/11/23 07:06:18;;;;;;;;;;;1.90;99.90;;;;;;8406608;28;19942;-65
2021/11/23 07:10:18;;;;;;;;;;;2.00;99.90;;;;;;8420748;28;19912;-65
2021/11/23 07:14:19;;;;;;;;;;;2.00;99.90;;;;;;8424352;28;19950;-65
2021/11/23 07:18:20;;;;;;;;;;;2.10;99.90;;;;;;8431441;28;19911;-65
2021/11/23 07:22:20;;;;;;;;;;;2.20;99.90;;;;;;8420886;28;19954;-65
2021/11/23 07:26:21;;;;;;;;;;;2.20;99.90;;;;;;8405296;28;19935;-65
2021/11/23 07:30:21;;;;;;;;;;;2.40;99.90;;;;;;8404695;28;19916;-65
2021/11/23 07:34:22;;;;;;;;;;;2.50;99.90;;;;;;8431590;28;20407;-65
2021/11/23 07:38:22;;;;;;;;;;;2.60;99.90;;;;;;8431377;28;19916;-65
2021/11/23 07:42:23;;;;;;;;;;;2.50;99.90;;;;;;8410933;28;19956;-65
2021/11/23 07:46:25;;;;;;;;;;;2.50;99.90;;;;;;8382819;28;20483;-65
2021/11/23 07:50:25;;;;;;;;;;;2.60;99.90;;;;;;8407327;28;19920;-65
2021/11/23 07:54:26;;;;;;;;;;;2.60;99.90;;;;;;8421929;28;19958;-65
2021/11/23 07:58:26;;;;;;;;;;;2.70;99.90;;;;;;8429441;28;19946;-65
2021/11/23 08:02:27;;;;;;;;;;;2.80;99.90;;;;;;8423799;28;19913;-65
2021/11/23 08:06:27;;;;;;;;;;;2.80;99.90;;;;;;8427698;28;20298;-64
2021/11/23 08:10:28;;;;;;;;;;;2.80;99.90;;;;;;8428015;28;20359;-65
2021/11/23 08:14:28;;;;;;;;;;;2.80;99.90;;;;;;8384336;28;19961;-65
2021/11/23 08:18:33;;;;;;;;;;;3.00;99.90;;;;;;8396100;28;19934;-65
2021/11/23 08:22:33;;;;;;;;;;;3.00;99.90;;;;;;8378173;28;19909;-65
2021/11/23 08:26:34;;;;;;;;;;;3.00;99.90;;;;;;8396220;28;19948;-65
2021/11/23 08:30:34;;;;;;;;;;;3.00;99.90;;;;;;8404073;28;19920;-65
2021/11/23 08:34:35;;;;;;;;;;;2.90;99.90;;;;;;8406671;28;19912;-65
2021/11/23 08:38:36;;;;;;;;;;;3.00;99.90;;;;;;8410479;28;19977;-65
2021/11/23 08:42:37;;;;;;;;;;;3.10;99.90;;;;;;8402328;28;19966;-65
2021/11/23 08:46:37;;;;;;;;;;;3.00;99.90;;;;;;8429536;28;19909;-65
2021/11/23 08:50:38;;;;;;;;;;;3.00;99.90;;;;;;8427903;28;19919;-65
2021/11/23 08:54:39;;;;;;;;;;;3.00;99.90;;;;;;8427133;28;20381;-65
2021/11/23 08:58:40;;;;;;;;;;;3.00;99.90;;;;;;8409453;28;19912;-65
2021/11/23 09:02:42;;;;;;;;;;;3.00;99.90;;;;;;8415649;28;20366;-65
2021/11/23 09:06:43;;;;;;;;;;;3.00;99.90;;;;;;8414095;28;19912;-65
2021/11/23 09:10:43;;;;;;;;;;;2.90;99.90;;;;;;8413670;28;19912;-65
2021/11/23 09:14:44;;;;;;;;;;;3.00;99.90;;;;;;8428557;28;19919;-65
2021/11/23 09:18:44;;;;;;;;;;;3.00;99.90;;;;;;8407951;28;19912;-65
2021/11/23 09:22:46;;;;;;;;;;;3.00;99.90;;;;;;8427519;28;19914;-65
2021/11/23 09:26:46;;;;;;;;;;;3.00;99.90;;;;;;8409023;28;19919;-65
2021/11/23 09:30:47;;;;;;;;;;;2.90;99.90;;;;;;8429820;22;19967;-66
2021/11/23 09:34:47;;;;;;;;;;;2.90;99.90;;;;;;8427037;28;19912;-66
2021/11/23 09:38:48;;;;;;;;;;;3.00;99.90;;;;;;8427307;28;19912;-66
2021/11/23 09:42:49;;;;;;;;;;;3.00;99.90;;;;;;8425156;28;19916;-66
2021/11/23 09:46:49;;;;;;;;;;;2.90;99.90;;;;;;8424638;28;19912;-66
2021/11/23 09:50:50;;;;;;;;;;;2.90;99.90;;;;;;8406263;28;19909;-66
2021/11/23 09:54:51;;;;;;;;;;;3.00;99.90;;;;;;8425361;28;19908;-66
2021/11/23 09:58:55;;;;;;;;;;;2.90;99.90;;;;;;8425142;28;19978;-66
2021/11/23 10:03:07;;;;;;;;;;;2.90;99.90;;;;;;8407468;28;19919;-65
2021/11/23 10:07:08;;;;;;;;;;;2.90;99.90;;;;;;8408116;28;19916;-66
2021/11/23 10:11:09;;;;;;;;;;;3.00;99.90;;;;;;8425891;28;19912;-66
2021/11/23 10:15:13;;;;;;;;;;;3.00;99.90;;;;;;8384407;28;19920;-66
2021/11/23 10:19:14;;;;;;;;;;;3.20;99.90;;;;;;8424355;28;19999;-66
2021/11/23 10:23:15;;;;;;;;;;;3.10;99.90;;;;;;8424516;28;19950;-66
2021/11/23 10:27:18;;;;;;;;;;;3.10;99.90;;;;;;8424487;28;20332;-66
2021/11/23 10:31:19;;;;;;;;;;;3.10;99.90;;;;;;8423107;28;20385;-66
2021/11/23 10:35:21;;;;;;;;;;;3.20;99.90;;;;;;8426141;28;20396;-67
2021/11/23 10:39:26;;;;;;;;;;;3.30;99.90;;;;;;8423928;28;19908;-66
2021/11/23 10:43:28;;;;;;;;;;;3.40;99.90;;;;;;8382542;28;19916;-66
2021/11/23 10:47:34;;;;;;;;;;;3.40;99.90;;;;;;8392561;28;19913;-66
2021/11/23 10:51:39;;;;;;;;;;;3.50;99.90;;;;;;8425065;28;19919;-66
2021/11/23 10:55:42;;;;;;;;;;;3.50;99.90;;;;;;8425928;28;19912;-66
2021/11/23 10:59:42;;;;;;;;;;;3.60;99.90;;;;;;8406614;28;20503;-66
2021/11/23 11:03:43;;;;;;;;;;;3.60;99.90;;;;;;8424330;28;19916;-66
2021/11/23 11:07:45;;;;;;;;;;;3.50;99.90;;;;;;8424681;28;19916;-66
2021/11/23 11:11:45;;;;;;;;;;;3.60;99.90;;;;;;8416613;28;20358;-66
2021/11/23 11:15:50;;;;;;;;;;;3.70;99.90;;;;;;8426654;28;19958;-66
2021/11/23 11:19:51;;;;;;;;;;;3.80;99.90;;;;;;8419414;28;19923;-66
2021/11/23 11:23:57;;;;;;;;;;;3.80;99.90;;;;;;8430836;28;20311;-66
2021/11/23 11:27:57;;;;;;;;;;;3.80;99.90;;;;;;8431115;28;19990;-66
2021/11/23 11:31:59;;;;;;;;;;;3.90;99.90;;;;;;8436188;28;19923;-66
2021/11/23 11:36:00;;;;;;;;;;;4.10;99.90;;;;;;8416459;28;19997;-65
2021/11/23 11:40:03;;;;;;;;;;;4.20;99.90;;;;;;8405180;28;19919;-66
2021/11/23 11:44:26;;;;;;;;;;;4.20;99.90;;;;;;8429569;28;20395;-66
2021/11/23 11:48:29;;;;;;;;;;;4.20;99.90;;;;;;8429485;28;19913;-66
2021/11/23 11:52:52;;;;;;;;;;;4.30;99.90;;;;;;8431072;28;19999;-66
2021/11/23 11:56:54;;;;;;;;;;;4.60;99.90;;;;;;8429400;28;20070;-66
2021/11/23 12:00:55;;;;;;;;;;;4.80;99.90;;;;;;8429691;28;19915;-65
2021/11/23 12:04:58;;;;;;;;;;;4.70;99.90;;;;;;8429707;28;19912;-66
2021/11/23 12:09:18;;;;;;;;;;;4.90;99.90;;;;;;8428752;28;20271;-66
2021/11/23 12:13:22;;;;;;;;;;;5.00;99.90;;;;;;8422214;28;19917;-66
2021/11/23 12:17:43;;;;;;;;;;;4.90;99.90;;;;;;8428974;28;19908;-66
2021/11/23 12:21:48;;;;;;;;;;;4.90;99.90;;;;;;8427390;28;19908;-66
2021/11/23 12:30:27;;;;;;;;;;;4.90;99.90;;;;;;8414383;28;20260;-65
2021/11/23 12:34:28;;;;;;;;;;;4.70;99.90;;;;;;8392473;28;19908;-66
2021/11/23 12:38:29;;;;;;;;;;;4.60;99.90;;;;;;8409657;28;20156;-65
2021/11/23 12:42:38;;;;;;;;;;;4.40;99.90;;;;;;8429214;28;20290;-66
2021/11/23 12:46:39;;;;;;;;;;;4.60;99.90;;;;;;8428872;28;20290;-65
2021/11/23 12:50:39;;;;;;;;;;;4.80;99.90;;;;;;8427955;28;19912;-66
2021/11/23 12:54:41;;;;;;;;;;;5.10;99.90;;;;;;8427854;28;20320;-65
2021/11/23 12:58:41;;;;;;;;;;;5.30;99.90;;;;;;8420926;28;19912;-66
2021/11/23 13:02:45;;;;;;;;;;;5.30;99.90;;;;;;8419414;28;19918;-66
2021/11/23 13:07:05;;;;;;;;;;;5.50;99.90;;;;;;8427799;28;20290;-66
2021/11/23 13:11:11;;;;;;;;;;;5.70;99.90;;;;;;8428075;28;19916;-66
2021/11/23 13:15:17;;;;;;;;;;;5.90;99.90;;;;;;8428279;28;20275;-66
2021/11/23 13:19:18;;;;;;;;;;;6.10;99.90;;;;;;8427408;28;19976;-66
2021/11/23 13:23:23;;;;;;;;;;;6.20;99.90;;;;;;8417897;28;19951;-66
2021/11/23 13:27:25;;;;;;;;;;;6.00;99.90;;;;;;8399913;28;20123;-66
2021/11/23 13:31:26;;;;;;;;;;;5.70;99.90;;;;;;8410931;28;19920;-66
2021/11/23 13:35:27;;;;;;;;;;;5.50;99.90;;;;;;8394354;28;20378;-66
2021/11/23 13:39:27;;;;;;;;;;;5.30;99.90;;;;;;8401068;28;19924;-66
2021/11/23 13:43:28;;;;;;;;;;;5.40;99.90;;;;;;8394696;28;19919;-66
2021/11/23 13:47:28;;;;;;;;;;;5.70;99.90;;;;;;8417442;28;20310;-66
2021/11/23 13:51:29;;;;;;;;;;;5.70;99.90;;;;;;8425434;28;20006;-66
2021/11/23 13:55:30;;;;;;;;;;;5.40;99.90;;;;;;8422986;28;19975;-65
2021/11/23 13:59:30;;;;;;;;;;;5.20;99.90;;;;;;8417445;28;19960;-66
2021/11/23 14:03:30;;;;;;;;;;;5.10;99.90;;;;;;8415047;28;19912;-63
2021/11/23 14:07:46;;;;;;;;;;;4.90;99.90;;;;;;8417367;28;19924;-64
2021/11/23 14:12:00;;;;;;;;;;;4.80;99.90;;;;;;8401471;28;20344;-64
2021/11/23 14:16:08;;;;;;;;;;;4.70;99.90;;;;;;8425128;28;19962;-64
2021/11/23 14:20:09;;;;;;;;;;;4.70;99.90;;;;;;8420829;28;20378;-64
2021/11/23 14:24:12;;;;;;;;;;;4.60;99.90;;;;;;8423154;28;19954;-65
2021/11/23 14:28:13;;;;;;;;;;;4.60;99.90;;;;;;8417728;28;20196;-63
2021/11/23 14:32:13;;;;;;;;;;;4.70;99.90;;;;;;8398691;28;20006;-63
2021/11/23 14:36:27;;;;;;;;;;;4.70;99.90;;;;;;8412644;28;19912;-64
2021/11/23 14:40:29;;;;;;;;;;;4.70;99.90;;;;;;8401870;28;19947;-63
2021/11/23 14:44:29;;;;;;;;;;;4.60;99.90;;;;;;8422717;28;19916;-63
2021/11/23 14:48:30;;;;;;;;;;;4.60;99.90;;;;;;8419282;28;20348;-64
2021/11/23 14:52:31;;;;;;;;;;;4.50;99.90;;;;;;8411537;28;20434;-64
2021/11/23 14:56:32;;;;;;;;;;;4.40;99.90;;;;;;8428854;28;19922;-63
2021/11/23 15:00:32;;;;;;;;;;;4.40;99.90;;;;;;8424226;28;19912;-63
2021/11/23 15:04:33;;;;;;;;;;;4.40;99.90;;;;;;8404253;28;19920;-64
2021/11/23 15:08:34;;;;;;;;;;;4.30;99.90;;;;;;8429727;28;19916;-64
2021/11/23 15:12:34;;;;;;;;;;;4.20;99.90;;;;;;8430257;28;19972;-63
2021/11/23 15:16:38;;;;;;;;;;;4.20;99.90;;;;;;8430187;28;19912;-64
2021/11/23 15:20:39;;;;;;;;;;;4.30;99.90;;;;;;8417439;28;19920;-63
2021/11/23 15:24:39;;;;;;;;;;;4.30;99.90;;;;;;8384646;28;19916;-63
2021/11/23 15:28:40;;;;;;;;;;;4.20;99.90;;;;;;8457598;22;20023;-64
2021/11/23 15:32:40;;;;;;;;;;;4.10;99.90;;;;;;8406014;28;20450;-63
2021/11/23 15:36:41;;;;;;;;;;;4.00;99.90;;;;;;8418915;28;19916;-64
2021/11/23 15:40:41;;;;;;;;;;;4.00;99.90;;;;;;8421230;28;19956;-64
2021/11/23 15:44:42;;;;;;;;;;;4.10;99.90;;;;;;8422474;28;19916;-63
2021/11/23 15:48:42;;;;;;;;;;;4.00;99.90;;;;;;8418163;28;19924;-63
2021/11/23 15:52:43;;;;;;;;;;;4.10;99.90;;;;;;8408471;28;19912;-63
2021/11/23 15:56:43;;;;;;;;;;;4.00;99.90;;;;;;8404743;28;20059;-64
2021/11/23 16:00:44;;;;;;;;;;;4.00;99.90;;;;;;8423295;28;19969;-64
2021/11/23 16:04:45;;;;;;;;;;;3.90;99.90;;;;;;8420633;28;20343;-64
2021/11/23 16:08:45;;;;;;;;;;;3.90;99.90;;;;;;8424516;28;19942;-65
2021/11/23 16:12:46;;;;;;;;;;;3.90;99.90;;;;;;8431359;28;20388;-65
2021/11/23 16:16:46;;;;;;;;;;;3.80;99.90;;;;;;8407643;28;20289;-65
2021/11/23 16:20:47;;;;;;;;;;;3.80;99.90;;;;;;8407320;28;20026;-65
2021/11/23 16:24:48;;;;;;;;;;;3.80;99.90;;;;;;8398859;28;19919;-64
2021/11/23 16:28:48;;;;;;;;;;;3.80;99.90;;;;;;8411169;28;20385;-65
2021/11/23 16:32:49;;;;;;;;;;;3.80;99.90;;;;;;8411047;28;20348;-64
2021/11/23 16:36:49;;;;;;;;;;;3.90;99.90;;;;;;8429461;28;19915;-65
2021/11/23 16:40:51;;;;;;;;;;;3.80;99.90;;;;;;8428842;28;20019;-65
2021/11/23 16:44:51;;;;;;;;;;;3.80;99.90;;;;;;8422459;28;19909;-65
2021/11/23 16:48:52;;;;;;;;;;;3.90;99.90;;;;;;8425986;28;20393;-65
2021/11/23 16:52:52;;;;;;;;;;;3.90;99.90;;;;;;8410336;28;19963;-64
2021/11/23 16:56:53;;;;;;;;;;;3.80;99.90;;;;;;8428823;28;20286;-64
2021/11/23 17:00:55;;;;;;;;;;;3.80;99.90;;;;;;8428059;28;19912;-64
2021/11/23 17:04:56;;;;;;;;;;;3.80;99.90;;;;;;8405791;28;19963;-64
2021/11/23 17:08:57;;;;;;;;;;;3.80;99.90;;;;;;8393454;28;20142;-64
2021/11/23 17:12:58;;;;;;;;;;;3.80;99.90;;;;;;8395378;28;19914;-65
2021/11/23 17:16:58;;;;;;;;;;;3.80;99.90;;;;;;8418611;28;20377;-64
2021/11/23 17:21:00;;;;;;;;;;;3.70;99.90;;;;;;8406400;28;19918;-64
2021/11/23 17:25:03;;;;;;;;;;;3.70;99.90;;;;;;8409175;28;19915;-65
2021/11/23 17:29:04;;;;;;;;;;;3.60;99.90;;;;;;8405492;28;19959;-64
2021/11/23 17:33:05;;;;;;;;;;;3.60;99.90;;;;;;8408556;28;19919;-65
2021/11/23 17:37:06;;;;;;;;;;;3.70;99.90;;;;;;8414496;28;19920;-65
2021/11/23 17:41:06;;;;;;;;;;;3.70;99.90;;;;;;8409142;28;19912;-66
2021/11/23 17:45:08;;;;;;;;;;;3.70;99.90;;;;;;8410423;28;19920;-65
2021/11/23 17:49:08;;;;;;;;;;;3.70;99.90;;;;;;8375478;28;19913;-65
2021/11/23 17:53:08;;;;;;;;;;;3.70;99.90;;;;;;8393619;28;19909;-65
2021/11/23 17:57:09;;;;;;;;;;;3.60;99.90;;;;;;8407328;28;19912;-66
2021/11/23 18:01:10;;;;;;;;;;;3.60;99.90;;;;;;8402495;28;20436;-66
2021/11/23 18:05:10;;;;;;;;;;;3.50;99.90;;;;;;8421400;28;20381;-65
2021/11/23 18:09:11;;;;;;;;;;;3.50;99.90;;;;;;8414752;28;19919;-65
2021/11/23 18:13:13;;;;;;;;;;;3.40;99.90;;;;;;8389642;28;20382;-66
2021/11/23 18:17:13;;;;;;;;;;;3.50;99.90;;;;;;8403810;28;20480;-66
2021/11/23 18:21:14;;;;;;;;;;;3.60;99.90;;;;;;8407698;28;19912;-66
2021/11/23 18:25:18;;;;;;;;;;;3.60;99.90;;;;;;8405220;28;19912;-65
2021/11/23 18:29:19;;;;;;;;;;;3.50;99.90;;;;;;8402810;28;19919;-65
2021/11/23 18:33:22;;;;;;;;;;;3.50;99.90;;;;;;8418666;28;19960;-65
2021/11/23 18:37:24;;;;;;;;;;;3.30;99.90;;;;;;8404796;28;20370;-66
2021/11/23 18:41:24;;;;;;;;;;;3.20;99.90;;;;;;8390276;28;20015;-66
2021/11/23 18:45:25;;;;;;;;;;;3.20;99.90;;;;;;8410551;28;19908;-65
2021/11/23 18:49:25;;;;;;;;;;;3.20;99.90;;;;;;8389130;28;20535;-66
2021/11/23 18:53:28;;;;;;;;;;;3.10;99.90;;;;;;8405655;28;19919;-66
2021/11/23 18:57:28;;;;;;;;;;;3.20;99.90;;;;;;8404740;28;19916;-65
2021/11/23 19:01:29;;;;;;;;;;;3.20;99.90;;;;;;8401176;28;19916;-66
2021/11/23 19:05:30;;;;;;;;;;;3.30;99.90;;;;;;8406129;28;19916;-64
2021/11/23 19:09:30;;;;;;;;;;;3.40;99.90;;;;;;8402051;28;20312;-64
2021/11/23 19:13:31;;;;;;;;;;;3.20;99.90;;;;;;8410999;28;19970;-64
2021/11/23 19:17:32;;;;;;;;;;;3.20;99.90;;;;;;8403591;28;19923;-65
2021/11/23 19:21:32;;;;;;;;;;;3.30;99.90;;;;;;8411157;28;19931;-66
2021/11/23 19:25:33;;;;;;;;;;;3.30;99.90;;;;;;8381231;28;19999;-66
2021/11/23 19:29:33;;;;;;;;;;;3.30;99.90;;;;;;8393882;28;19920;-66
2021/11/23 19:33:34;;;;;;;;;;;3.30;99.90;;;;;;8409565;28;19916;-66
2021/11/23 19:37:39;;;;;;;;;;;3.30;99.90;;;;;;8408777;28;19913;-65
2021/11/23 19:41:40;;;;;;;;;;;3.30;99.90;;;;;;8415094;28;20039;-66
2021/11/23 19:45:41;;;;;;;;;;;3.30;99.90;;;;;;8410021;28;20556;-65
2021/11/23 19:49:41;;;;;;;;;;;3.30;99.90;;;;;;8414183;28;19942;-64
2021/11/23 19:53:42;;;;;;;;;;;3.40;99.90;;;;;;8407486;28;19996;-63
2021/11/23 19:57:42;;;;;;;;;;;3.40;99.90;;;;;;8380089;28;19923;-64
2021/11/23 20:01:44;;;;;;;;;;;3.20;99.90;;;;;;8393503;28;19960;-64
2021/11/23 20:05:45;;;;;;;;;;;3.20;99.90;;;;;;8407520;28;19912;-64
2021/11/23 20:09:51;;;;;;;;;;;3.20;99.90;;;;;;8402133;28;20382;-64
2021/11/23 20:13:52;;;;;;;;;;;3.10;99.90;;;;;;8405167;28;20386;-64
2021/11/23 20:17:53;;;;;;;;;;;3.10;99.90;;;;;;8405956;28;19961;-64
2021/11/23 20:21:54;;;;;;;;;;;3.20;99.90;;;;;;8423909;28;19920;-69
2021/11/23 20:25:56;;;;;;;;;;;3.10;99.90;;;;;;8420993;28;19920;-69
2021/11/23 20:29:58;;;;;;;;;;;3.20;99.90;;;;;;8416064;28;20012;-68
2021/11/23 20:33:59;;;;;;;;;;;3.20;99.90;;;;;;8404350;28;19951;-68
2021/11/23 20:37:59;;;;;;;;;;;3.20;99.90;;;;;;8421743;28;19912;-69
2021/11/23 20:42:02;;;;;;;;;;;3.20;99.90;;;;;;8398096;28;20432;-69
2021/11/23 20:46:03;;;;;;;;;;;3.30;99.90;;;;;;8421968;28;19912;-69
2021/11/23 20:50:04;;;;;;;;;;;3.20;99.90;;;;;;8423006;28;20018;-65
2021/11/23 20:54:05;;;;;;;;;;;3.10;99.90;;;;;;8420714;28;19916;-65
2021/11/23 20:58:06;;;;;;;;;;;3.00;99.90;;;;;;8424527;28;19976;-65
2021/11/23 21:02:08;;;;;;;;;;;3.00;99.90;;;;;;8421543;28;19912;-64
2021/11/23 21:06:08;;;;;;;;;;;2.90;99.90;;;;;;8402178;28;20386;-65
2021/11/23 21:10:09;;;;;;;;;;;2.90;99.90;;;;;;8419912;28;19916;-65
2021/11/23 21:14:10;;;;;;;;;;;2.70;99.90;;;;;;8417829;28;19912;-65
2021/11/23 21:18:10;;;;;;;;;;;2.70;99.90;;;;;;8422952;28;19985;-65
2021/11/23 21:22:11;;;;;;;;;;;2.90;99.90;;;;;;8427668;28;19916;-65
2021/11/23 21:26:11;;;;;;;;;;;2.90;99.90;;;;;;8416908;28;20002;-64
2021/11/23 21:30:12;;;;;;;;;;;3.10;99.90;;;;;;8420759;28;19916;-64
2021/11/23 21:34:15;;;;;;;;;;;3.00;99.90;;;;;;8407848;28;21313;-64
2021/11/23 21:38:16;;;;;;;;;;;2.80;99.90;;;;;;8406305;28;19924;-64
2021/11/23 21:42:16;;;;;;;;;;;2.70;99.90;;;;;;8416117;28;20305;-65
2021/11/23 21:46:29;;;;;;;;;;;2.70;99.90;;;;;;8404031;28;19915;-64
2021/11/23 21:50:35;;;;;;;;;;;2.70;99.90;;;;;;8393405;28;19999;-65
2021/11/23 21:54:36;;;;;;;;;;;2.70;99.90;;;;;;8375496;28;19927;-64
2021/11/23 21:58:37;;;;;;;;;;;2.60;99.90;;;;;;8393496;28;19909;-64
2021/11/23 22:02:38;;;;;;;;;;;2.80;99.90;;;;;;8392588;28;19924;-64
2021/11/23 22:06:38;;;;;;;;;;;2.70;99.90;;;;;;8393437;28;19909;-64
2021/11/23 22:10:40;;;;;;;;;;;2.70;99.90;;;;;;8387411;28;20340;-64
2021/11/23 22:14:40;;;;;;;;;;;2.70;99.90;;;;;;8426517;28;19914;-64
2021/11/23 22:18:42;;;;;;;;;;;2.50;99.90;;;;;;8426605;28;19912;-64
2021/11/23 22:22:42;;;;;;;;;;;2.70;99.90;;;;;;8426288;28;20511;-64
2021/11/23 22:26:43;;;;;;;;;;;2.60;99.90;;;;;;8408453;28;19912;-65
2021/11/23 22:30:43;;;;;;;;;;;2.60;99.90;;;;;;8425761;28;19920;-65
2021/11/23 22:34:44;;;;;;;;;;;2.70;99.90;;;;;;8407875;28;20396;-65
2021/11/23 22:38:44;;;;;;;;;;;2.80;99.90;;;;;;8425115;28;19908;-65
2021/11/23 22:42:45;;;;;;;;;;;2.80;99.90;;;;;;8417281;28;19915;-65
2021/11/23 22:46:45;;;;;;;;;;;2.70;99.90;;;;;;8408195;28;19916;-65
2021/11/23 22:50:46;;;;;;;;;;;2.70;99.90;;;;;;8407590;28;19935;-65
2021/11/23 22:54:46;;;;;;;;;;;2.80;99.90;;;;;;8425918;28;19916;-64
2021/11/23 22:58:47;;;;;;;;;;;2.80;99.90;;;;;;8426109;28;19909;-65
2021/11/23 23:02:47;;;;;;;;;;;2.70;99.90;;;;;;8425404;28;19943;-65
2021/11/23 23:06:48;;;;;;;;;;;2.60;99.90;;;;;;8425523;28;19908;-65
2021/11/23 23:10:48;;;;;;;;;;;2.70;99.90;;;;;;8417435;28;19912;-64
2021/11/23 23:14:49;;;;;;;;;;;2.70;99.90;;;;;;8413840;28;20006;-65
2021/11/23 23:18:50;;;;;;;;;;;2.80;99.90;;;;;;8431992;28;20010;-65
2021/11/23 23:22:50;;;;;;;;;;;2.60;99.90;;;;;;8431648;28;19915;-65
2021/11/23 23:27:03;;;;;;;;;;;2.80;99.90;;;;;;8431821;28;19915;-65
2021/11/23 23:31:08;;;;;;;;;;;2.60;99.90;;;;;;8431267;28;19920;-64
2021/11/23 23:35:08;;;;;;;;;;;2.80;99.90;;;;;;8413155;28;20361;-65
2021/11/23 23:39:09;;;;;;;;;;;2.60;99.90;;;;;;8429909;28;19919;-65
2021/11/23 23:43:09;;;;;;;;;;;2.50;99.90;;;;;;8404420;28;19915;-65
2021/11/23 23:47:10;;;;;;;;;;;2.50;99.90;;;;;;8431118;28;19908;-65
2021/11/23 23:51:10;;;;;;;;;;;2.60;99.90;;;;;;8412575;28;19908;-65